Time;durP1;ratioP1;P1;durP2;ratioP2;P2;SDS_P1;SDS_P2;PMS_P1;PMS_P2;Temp;Humidity;BMP_temperature;BMP_pressure;BME280_temperature;BME280_humidity;BME280_pressure;Samples;Min_cycle;Max_cycle;Signal;HPM_P1;HPM_P2
2022/01/10 00:01:00;;;;;;;1.13;1.03;;;;;;;3.11;86.19;95542.41;5057357;28;20210;-71
2022/01/10 00:03:27;;;;;;;2.07;1.57;;;;;;;2.97;85.57;95544.72;5056052;28;20207;-72
2022/01/10 00:05:53;;;;;;;2.73;2.40;;;;;;;2.79;87.05;95549.91;5056564;28;20299;-71
2022/01/10 00:08:20;;;;;;;1.13;0.93;;;;;;;2.79;86.51;95555.09;5057896;28;20207;-71
2022/01/10 00:10:46;;;;;;;1.33;1.23;;;;;;;2.77;84.69;95556.22;5060907;28;20227;-71
2022/01/10 00:13:13;;;;;;;2.00;1.30;;;;;;;2.79;84.17;95562.91;5060026;28;20634;-70
2022/01/10 00:15:40;;;;;;;2.30;2.10;;;;;;;2.87;84.91;95576.00;5060224;28;20227;-71
2022/01/10 00:18:08;;;;;;;1.30;1.20;;;;;;;2.95;85.94;95581.28;5057699;28;21076;-71
2022/01/10 00:20:34;;;;;;;3.93;1.63;;;;;;;2.83;86.79;95577.25;5060397;28;20208;-71
2022/01/10 00:23:01;;;;;;;1.30;1.10;;;;;;;2.18;89.91;95579.22;5059705;28;20220;-71
2022/01/10 00:25:28;;;;;;;6.80;1.77;;;;;;;2.07;91.39;95576.00;5060154;28;20239;-71
2022/01/10 00:27:55;;;;;;;2.73;1.57;;;;;;;2.00;91.77;95580.13;5060422;28;20205;-70
2022/01/10 00:30:23;;;;;;;1.23;1.13;;;;;;;2.02;90.90;95581.59;5060078;28;20235;-72
2022/01/10 00:32:50;;;;;;;1.53;1.43;;;;;;;2.07;90.24;95574.19;5059649;28;20672;-70
2022/01/10 00:35:18;;;;;;;3.40;1.47;;;;;;;2.19;90.74;95575.69;5059897;28;20814;-71
2022/01/10 00:37:45;;;;;;;1.80;1.07;;;;;;;2.00;90.89;95574.94;5059971;28;20204;-71
2022/01/10 00:40:14;;;;;;;0.90;0.83;;;;;;;2.11;91.04;95582.53;5059858;28;20223;-72
2022/01/10 00:42:42;;;;;;;3.90;1.77;;;;;;;1.98;91.96;95574.25;5059578;28;20216;-71
2022/01/10 00:45:17;;;;;;;1.50;1.33;;;;;;;1.95;92.37;95585.72;5059455;28;20222;-72
2022/01/10 00:47:46;;;;;;;2.20;1.73;;;;;;;1.98;91.46;95588.03;5059081;28;20231;-71
2022/01/10 00:50:13;;;;;;;5.70;1.77;;;;;;;1.88;92.77;95587.28;5060344;28;20220;-73
2022/01/10 00:52:41;;;;;;;3.27;1.90;;;;;;;2.22;92.03;95593.56;5059547;28;20219;-71
2022/01/10 00:55:09;;;;;;;2.43;1.80;;;;;;;2.26;91.93;95601.91;5059548;28;20231;-71
2022/01/10 00:57:36;;;;;;;2.33;1.60;;;;;;;2.16;92.88;95601.13;5060010;28;20213;-72
2022/01/10 01:00:04;;;;;;;3.83;0.97;;;;;;;1.97;93.67;95603.78;5059264;28;20215;-71
2022/01/10 01:02:32;;;;;;;3.70;0.97;;;;;;;1.94;94.23;95601.47;5058777;28;20748;-72
2022/01/10 01:04:58;;;;;;;2.07;0.97;;;;;;;2.23;91.80;95607.38;5059431;28;20226;-71
2022/01/10 01:07:25;;;;;;;2.27;1.63;;;;;;;2.30;92.10;95611.06;5059379;28;21121;-72
2022/01/10 01:10:04;;;;;;;2.20;1.97;;;;;;;2.30;92.29;95611.88;5058946;28;20228;-71
2022/01/10 01:12:41;;;;;;;1.00;0.97;;;;;;;2.20;92.23;95618.91;5058917;28;20258;-71
2022/01/10 01:15:18;;;;;;;1.57;0.90;;;;;;;2.40;91.79;95619.66;5059050;28;20797;-71
2022/01/10 01:17:58;;;;;;;2.20;1.37;;;;;;;2.17;93.16;95626.16;5056360;28;20202;-71
2022/01/10 01:20:41;;;;;;;2.23;1.30;;;;;;;2.38;92.99;95626.75;5058958;28;20202;-70
2022/01/10 01:25:55;;;;;;;3.13;1.53;;;;;;;2.59;92.22;95636.78;5058281;28;20282;-70
2022/01/10 01:28:21;;;;;;;4.03;1.80;;;;;;;2.37;92.02;95638.94;5059263;28;20213;-72
2022/01/10 01:30:48;;;;;;;2.20;1.43;;;;;;;2.38;92.38;95639.75;5059727;28;20224;-72
2022/01/10 01:33:15;;;;;;;1.43;1.33;;;;;;;2.40;92.03;95645.66;5057842;28;20204;-72
2022/01/10 01:35:42;;;;;;;0.73;0.73;;;;;;;2.48;92.28;95646.56;5058611;28;20244;-72
2022/01/10 01:38:09;;;;;;;1.07;0.97;;;;;;;2.24;92.98;95650.59;5059225;28;20983;-73
2022/01/10 01:40:42;;;;;;;4.13;2.30;;;;;;;2.45;92.88;95654.66;5059039;28;20200;-71
2022/01/10 01:43:09;;;;;;;1.53;1.00;;;;;;;2.47;92.67;95657.94;5058093;28;20301;-72
2022/01/10 01:45:38;;;;;;;1.30;1.27;;;;;;;2.36;92.74;95660.69;5059235;28;20234;-70
2022/01/10 01:48:05;;;;;;;1.87;1.57;;;;;;;2.10;94.36;95664.03;5058243;28;20204;-71
2022/01/10 01:50:32;;;;;;;1.30;1.20;;;;;;;2.32;93.30;95667.16;5059217;28;20225;-71
2022/01/10 01:52:59;;;;;;;6.90;2.20;;;;;;;2.34;92.61;95670.41;5058147;28;20215;-72
2022/01/10 01:55:25;;;;;;;1.60;1.50;;;;;;;2.22;93.29;95670.72;5058697;28;20708;-71
2022/01/10 01:57:52;;;;;;;3.77;2.13;;;;;;;2.27;93.38;95686.72;5057953;28;20207;-71
2022/01/10 02:00:22;;;;;;;2.13;1.63;;;;;;;2.37;93.87;95677.94;5059981;28;20586;-71
2022/01/10 02:02:49;;;;;;;2.47;2.27;;;;;;;2.27;94.09;95676.34;5057586;28;20201;-72
2022/01/10 02:05:15;;;;;;;2.63;2.17;;;;;;;2.25;93.22;95679.03;5058837;28;20237;-72
2022/01/10 02:07:42;;;;;;;4.13;1.43;;;;;;;2.15;92.66;95687.84;5057772;28;21146;-71
2022/01/10 02:10:09;;;;;;;5.30;2.97;;;;;;;2.25;92.67;95693.84;5058368;28;20608;-72
2022/01/10 02:12:36;;;;;;;2.70;1.90;;;;;;;2.21;92.16;95692.47;5057690;28;20674;-72
2022/01/10 02:15:02;;;;;;;2.53;2.33;;;;;;;2.23;92.15;95693.97;5057675;28;20731;-72
2022/01/10 02:17:36;;;;;;;2.63;1.63;;;;;;;2.54;92.03;95698.00;5055888;28;20214;-72
2022/01/10 02:20:06;;;;;;;2.50;0.93;;;;;;;2.64;91.53;95699.59;5058032;28;20201;-71
2022/01/10 02:22:32;;;;;;;4.33;2.00;;;;;;;2.40;91.64;95704.44;5057819;28;20205;-71
2022/01/10 02:24:59;;;;;;;3.23;1.97;;;;;;;2.51;92.02;95695.69;5057734;28;20224;-72
2022/01/10 02:27:26;;;;;;;1.03;1.00;;;;;;;2.46;92.37;95698.69;5057771;28;20224;-71
2022/01/10 02:29:53;;;;;;;1.90;1.77;;;;;;;2.47;91.98;95700.34;5057676;28;20204;-71
2022/01/10 02:32:20;;;;;;;2.53;1.83;;;;;;;2.52;92.01;95698.16;5056433;28;20212;-71
2022/01/10 02:34:47;;;;;;;1.73;1.63;;;;;;;2.23;92.77;95704.38;5057844;28;20254;-72
2022/01/10 02:37:33;;;;;;;2.97;1.30;;;;;;;2.62;92.39;95695.50;5058088;28;20213;-71
2022/01/10 02:40:03;;;;;;;1.23;1.07;;;;;;;2.33;92.16;95710.38;5057446;28;20216;-72
2022/01/10 02:42:30;;;;;;;2.63;2.10;;;;;;;2.38;91.40;95709.94;5057216;28;20207;-72
2022/01/10 02:44:56;;;;;;;3.03;2.30;;;;;;;2.17;92.40;95707.53;5057756;28;20204;-71
2022/01/10 02:47:23;;;;;;;4.20;1.73;;;;;;;2.06;92.41;95705.09;5058050;28;20204;-70
2022/01/10 02:49:49;;;;;;;3.70;2.60;;;;;;;2.25;92.21;95705.03;5057642;28;20207;-71
2022/01/10 02:52:16;;;;;;;5.27;2.77;;;;;;;2.20;92.21;95709.88;5056823;28;20218;-72
2022/01/10 02:54:44;;;;;;;6.43;1.70;;;;;;;2.26;93.04;95717.06;5057046;28;20197;-72
2022/01/10 02:57:10;;;;;;;2.60;1.50;;;;;;;2.36;92.25;95717.88;5057894;28;20728;-71
2022/01/10 02:59:39;;;;;;;2.53;2.00;;;;;;;2.36;92.30;95722.28;5057096;28;20207;-71
2022/01/10 03:02:07;;;;;;;5.10;2.60;;;;;;;2.34;92.68;95726.78;5058172;28;20203;-70
2022/01/10 03:04:34;;;;;;;1.67;1.27;;;;;;;2.29;93.28;95735.00;5057887;28;20204;-70
2022/01/10 03:07:00;;;;;;;3.57;2.13;;;;;;;2.35;92.55;95736.22;5058371;28;20235;-70
2022/01/10 03:09:27;;;;;;;3.37;1.73;;;;;;;2.32;93.34;95731.28;5055314;28;20204;-71
2022/01/10 03:11:55;;;;;;;6.67;2.67;;;;;;;2.30;93.91;95735.81;5057581;28;20228;-71
2022/01/10 03:14:21;;;;;;;1.80;1.60;;;;;;;2.09;94.62;95735.19;5056251;28;20212;-72
2022/01/10 03:16:48;;;;;;;6.77;2.97;;;;;;;2.15;94.55;95742.41;5055001;28;20240;-71
2022/01/10 03:19:14;;;;;;;4.03;1.67;;;;;;;2.33;94.03;95743.34;5057433;28;20274;-71
2022/01/10 03:21:41;;;;;;;6.53;2.00;;;;;;;2.40;93.98;95746.03;5056771;28;20708;-70
2022/01/10 03:24:07;;;;;;;2.50;2.30;;;;;;;2.49;92.98;95755.59;5056822;28;20598;-72
2022/01/10 03:26:34;;;;;;;2.73;1.97;;;;;;;2.53;93.19;95750.94;5056782;28;20232;-71
2022/01/10 03:29:02;;;;;;;3.23;2.53;;;;;;;2.55;93.39;95762.03;5057419;28;20207;-71
2022/01/10 03:31:28;;;;;;;2.47;1.90;;;;;;;2.38;93.93;95761.94;5056903;28;20220;-70
2022/01/10 03:33:55;;;;;;;4.67;2.33;;;;;;;2.51;93.54;95763.28;5056524;28;20211;-70
2022/01/10 03:36:21;;;;;;;4.27;2.27;;;;;;;2.47;93.07;95765.34;5057324;28;21059;-71
2022/01/10 03:38:48;;;;;;;1.73;1.60;;;;;;;2.50;93.66;95777.25;5057011;28;20673;-71
2022/01/10 03:41:14;;;;;;;3.93;2.40;;;;;;;2.52;93.96;95781.34;5057258;28;21174;-73
2022/01/10 03:43:40;;;;;;;3.53;2.43;;;;;;;2.44;93.77;95786.44;5056201;28;20645;-70
2022/01/10 03:46:08;;;;;;;2.87;2.30;;;;;;;2.68;92.61;95786.78;5057360;28;20232;-70
2022/01/10 03:48:35;;;;;;;2.33;2.03;;;;;;;2.60;93.14;95791.06;5065726;28;20214;-70
2022/01/10 03:51:01;;;;;;;4.43;2.47;;;;;;;2.62;93.26;95794.31;5066110;28;20224;-70
2022/01/10 03:53:28;;;;;;;5.10;1.80;;;;;;;2.50;93.48;95801.47;5065219;28;20675;-69
2022/01/10 03:55:55;;;;;;;4.70;2.07;;;;;;;2.46;94.44;95810.50;5065377;28;20237;-69
2022/01/10 03:58:22;;;;;;;3.20;2.53;;;;;;;2.57;94.41;95817.31;5065696;28;20216;-69
2022/01/10 04:00:49;;;;;;;1.50;1.40;;;;;;;2.36;95.39;95823.66;5063340;28;20621;-70
2022/01/10 04:03:16;;;;;;;2.87;1.90;;;;;;;2.62;95.69;95826.38;5058158;28;20205;-70
2022/01/10 04:05:43;;;;;;;3.00;2.07;;;;;;;2.59;94.97;95829.22;5058760;28;20716;-70
2022/01/10 04:08:09;;;;;;;2.77;1.87;;;;;;;2.71;94.55;95838.53;5058244;28;20205;-70
2022/01/10 04:10:36;;;;;;;5.00;2.77;;;;;;;2.64;94.42;95840.03;5058082;28;20284;-70
2022/01/10 04:13:03;;;;;;;3.67;2.37;;;;;;;2.66;94.66;95840.72;5057621;28;20632;-70
2022/01/10 04:15:29;;;;;;;5.97;2.87;;;;;;;2.70;94.03;95844.69;5058678;28;20224;-70
2022/01/10 04:17:57;;;;;;;3.60;2.13;;;;;;;2.67;94.43;95839.78;5056279;28;20208;-70
2022/01/10 04:20:25;;;;;;;2.30;1.77;;;;;;;2.87;94.80;95848.38;5059489;28;20265;-70
2022/01/10 04:22:52;;;;;;;1.73;1.30;;;;;;;2.78;94.20;95844.81;5057423;28;20712;-70
2022/01/10 04:25:19;;;;;;;2.73;2.13;;;;;;;2.85;94.67;95851.09;5057856;28;20258;-70
2022/01/10 04:27:45;;;;;;;5.73;2.83;;;;;;;2.88;94.04;95855.19;5057394;28;20205;-70
2022/01/10 04:30:12;;;;;;;3.87;2.37;;;;;;;2.82;93.65;95853.97;5059238;28;20265;-71
2022/01/10 04:32:39;;;;;;;3.23;2.00;;;;;;;2.94;93.67;95865.03;5056717;28;20222;-71
2022/01/10 04:35:07;;;;;;;3.07;2.10;;;;;;;2.96;93.91;95863.94;5058566;28;20590;-70
2022/01/10 04:37:35;;;;;;;3.53;2.90;;;;;;;2.92;94.61;95867.78;5057770;28;20213;-70
2022/01/10 04:40:02;;;;;;;3.37;2.07;;;;;;;2.76;94.45;95869.31;5058683;28;20272;-70
2022/01/10 04:42:28;;;;;;;2.50;1.63;;;;;;;2.79;94.56;95876.84;5057116;28;20242;-71
2022/01/10 04:44:55;;;;;;;7.43;3.53;;;;;;;2.79;94.24;95875.06;5058436;28;20208;-70
2022/01/10 04:47:22;;;;;;;4.70;2.93;;;;;;;3.01;93.50;95880.78;5057754;28;20208;-70
2022/01/10 04:50:08;;;;;;;6.87;2.90;;;;;;;3.00;93.42;95878.31;5057964;28;20204;-69
2022/01/10 04:52:36;;;;;;;3.53;2.37;;;;;;;2.90;94.72;95884.50;5057461;28;20224;-70
2022/01/10 04:55:03;;;;;;;2.27;1.67;;;;;;;2.95;93.57;95883.13;5058922;28;20224;-70
2022/01/10 04:57:29;;;;;;;4.73;3.00;;;;;;;2.77;94.29;95899.59;5061364;28;20686;-70
2022/01/10 04:59:56;;;;;;;9.70;3.40;;;;;;;2.87;93.80;95895.19;5061951;28;20205;-70
2022/01/10 05:02:23;;;;;;;3.13;2.33;;;;;;;2.91;93.43;95905.16;5060956;28;20209;-70
2022/01/10 05:04:49;;;;;;;2.57;2.37;;;;;;;2.88;93.20;95907.22;5061118;28;20203;-70
2022/01/10 05:07:16;;;;;;;4.57;2.80;;;;;;;2.84;93.74;95906.69;5061452;28;20215;-70
2022/01/10 05:09:44;;;;;;;5.53;2.27;;;;;;;2.92;93.88;95913.81;5061774;28;20233;-70
2022/01/10 05:12:11;;;;;;;4.80;2.30;;;;;;;2.85;94.04;95913.56;5060951;28;20216;-70
2022/01/10 05:14:39;;;;;;;10.07;3.30;;;;;;;2.85;93.55;95913.56;5061467;28;20206;-70
2022/01/10 05:17:05;;;;;;;3.93;3.03;;;;;;;2.92;93.60;95919.84;5058674;28;21043;-70
2022/01/10 05:19:32;;;;;;;3.33;2.00;;;;;;;2.82;93.69;95924.22;5061141;28;20231;-70
2022/01/10 05:21:59;;;;;;;12.33;2.90;;;;;;;2.81;93.26;95935.56;5061038;28;20745;-70
2022/01/10 05:24:25;;;;;;;5.17;1.57;;;;;;;2.92;92.83;95940.66;5060814;28;20211;-70
2022/01/10 05:26:53;;;;;;;4.73;1.90;;;;;;;3.00;93.31;95943.38;5060567;28;20220;-70
2022/01/10 05:29:20;;;;;;;12.00;4.20;;;;;;;2.86;92.91;95938.59;5060707;28;20203;-70
2022/01/10 05:31:46;;;;;;;8.90;3.83;;;;;;;2.93;92.99;95937.09;5062514;28;20216;-70
2022/01/10 05:34:13;;;;;;;5.03;3.33;;;;;;;2.90;93.34;95941.75;5060015;28;20233;-70
2022/01/10 05:36:39;;;;;;;5.13;2.10;;;;;;;2.82;93.58;95952.84;5060399;28;21257;-70
2022/01/10 05:39:07;;;;;;;4.03;3.00;;;;;;;2.89;93.41;95946.13;5060652;28;20637;-70
2022/01/10 05:41:34;;;;;;;4.73;3.33;;;;;;;2.95;93.22;95961.19;5061659;28;20203;-71
2022/01/10 05:44:01;;;;;;;12.70;3.17;;;;;;;3.01;93.56;95955.44;5059549;28;20200;-70
2022/01/10 05:46:28;;;;;;;13.30;2.23;;;;;;;2.94;93.35;95956.13;5060686;28;20276;-70
2022/01/10 05:49:00;;;;;;;7.03;3.20;;;;;;;2.75;94.68;95962.16;5060307;28;20205;-71
2022/01/10 05:51:28;;;;;;;6.90;3.60;;;;;;;2.60;94.63;95971.31;5060294;28;20228;-70
2022/01/10 05:53:54;;;;;;;4.27;2.50;;;;;;;2.89;93.57;95966.94;5059551;28;20303;-70
2022/01/10 05:56:21;;;;;;;6.27;3.30;;;;;;;2.89;93.23;95966.94;5059624;28;20216;-70
2022/01/10 05:58:47;;;;;;;3.30;2.00;;;;;;;2.86;93.09;95967.22;5059564;28;20197;-70
2022/01/10 06:01:16;;;;;;;4.57;2.83;;;;;;;3.01;93.82;95972.84;5060218;28;20203;-70
2022/01/10 06:03:42;;;;;;;10.57;3.77;;;;;;;2.84;93.69;95976.94;5059212;28;20247;-70
2022/01/10 06:06:08;;;;;;;10.80;3.33;;;;;;;2.84;93.72;95979.56;5058842;28;20281;-70
2022/01/10 06:08:35;;;;;;;4.03;3.07;;;;;;;2.93;93.23;95983.94;5059596;28;20218;-70
2022/01/10 06:11:02;;;;;;;6.07;2.20;;;;;;;2.89;92.77;95985.16;5059881;28;20212;-69
2022/01/10 06:13:28;;;;;;;8.53;4.17;;;;;;;2.83;93.95;95988.31;5059335;28;20731;-70
2022/01/10 06:15:55;;;;;;;4.70;2.73;;;;;;;2.88;93.78;96001.72;5059414;28;20225;-70
2022/01/10 06:18:23;;;;;;;5.40;3.43;;;;;;;3.05;93.32;96006.25;5056000;28;20715;-70
2022/01/10 06:20:49;;;;;;;4.63;3.23;;;;;;;2.94;93.25;96003.81;5059711;28;20202;-70
2022/01/10 06:23:16;;;;;;;4.33;2.83;;;;;;;2.93;93.30;96004.75;5058911;28;20200;-70
2022/01/10 06:25:42;;;;;;;4.07;3.57;;;;;;;2.90;93.54;96010.22;5060345;28;20233;-70
2022/01/10 06:28:09;;;;;;;5.53;2.43;;;;;;;2.83;94.41;96014.31;5059772;28;20699;-69
2022/01/10 06:30:36;;;;;;;5.33;4.13;;;;;;;2.61;94.82;96018.94;5061076;28;20201;-70
2022/01/10 06:33:02;;;;;;;6.10;3.33;;;;;;;2.80;94.22;96025.00;5059360;28;20233;-70
2022/01/10 06:35:30;;;;;;;4.83;2.97;;;;;;;2.92;94.58;96034.31;5059932;28;20228;-70
2022/01/10 06:37:56;;;;;;;11.33;3.90;;;;;;;2.95;93.60;96036.66;5059795;28;21022;-71
2022/01/10 06:40:23;;;;;;;9.23;3.10;;;;;;;2.89;93.35;96032.00;5059362;28;20727;-70
2022/01/10 06:42:50;;;;;;;5.67;2.83;;;;;;;2.66;94.36;96034.97;5057924;28;20247;-71
2022/01/10 06:45:16;;;;;;;7.03;3.00;;;;;;;2.86;93.94;96055.66;5057836;28;20227;-72
2022/01/10 06:47:43;;;;;;;5.83;3.17;;;;;;;2.77;94.04;96055.66;5057422;28;20200;-71
2022/01/10 06:50:10;;;;;;;9.67;4.90;;;;;;;2.78;94.07;96059.91;5057783;28;20231;-70
2022/01/10 06:52:38;;;;;;;6.37;3.20;;;;;;;2.73;95.17;96057.72;5057373;28;20231;-71
2022/01/10 06:55:05;;;;;;;14.20;4.73;;;;;;;2.80;94.71;96066.63;5057291;28;20231;-70
2022/01/10 06:57:32;;;;;;;5.30;3.83;;;;;;;2.71;95.00;96067.44;5058125;28;20212;-70
2022/01/10 06:59:59;;;;;;;6.60;3.80;;;;;;;2.84;94.86;96078.41;5057304;28;20203;-70
2022/01/10 07:02:25;;;;;;;6.10;4.10;;;;;;;2.88;94.36;96085.00;5057021;28;20201;-70
2022/01/10 07:04:52;;;;;;;6.67;3.37;;;;;;;2.94;93.57;96091.44;5057493;28;20223;-70
2022/01/10 07:07:18;;;;;;;6.27;3.30;;;;;;;2.90;93.59;96088.25;5061154;28;20207;-70
2022/01/10 07:09:46;;;;;;;5.13;3.03;;;;;;;3.11;93.32;96096.81;5063466;28;20197;-70
2022/01/10 07:12:13;;;;;;;7.43;3.77;;;;;;;2.96;93.56;96103.34;5061509;28;20385;-70
2022/01/10 07:14:40;;;;;;;4.47;2.93;;;;;;;2.96;93.36;96102.53;5061185;28;20284;-70
2022/01/10 07:17:06;;;;;;;5.90;3.40;;;;;;;2.96;93.74;96110.34;5058786;28;20207;-70
2022/01/10 07:19:33;;;;;;;6.17;3.10;;;;;;;2.92;93.24;96116.78;5061190;28;20675;-70
2022/01/10 07:21:59;;;;;;;3.03;2.57;;;;;;;2.86;93.40;96128.53;5061271;28;20584;-70
2022/01/10 07:24:25;;;;;;;4.87;3.17;;;;;;;2.83;93.68;96133.19;5060807;28;20227;-70
2022/01/10 07:26:53;;;;;;;10.43;2.73;;;;;;;3.05;93.63;96125.97;5061278;28;20305;-70
2022/01/10 07:29:20;;;;;;;4.00;2.47;;;;;;;2.91;93.58;96144.56;5061839;28;20208;-70
2022/01/10 07:31:47;;;;;;;3.97;2.57;;;;;;;2.86;94.48;96153.72;5062059;28;20258;-70
2022/01/10 07:34:15;;;;;;;5.23;3.47;;;;;;;2.97;94.12;96162.25;5058158;28;20203;-70
2022/01/10 07:36:42;;;;;;;4.83;2.43;;;;;;;2.85;94.95;96163.34;5057082;28;20308;-70
2022/01/10 07:39:09;;;;;;;2.73;2.43;;;;;;;2.90;94.89;96170.72;5056656;28;20216;-70
2022/01/10 07:41:35;;;;;;;4.90;2.70;;;;;;;2.90;95.01;96176.75;5057276;28;20886;-70
2022/01/10 07:44:04;;;;;;;5.00;2.70;;;;;;;2.96;94.58;96180.63;5055808;28;20203;-70
2022/01/10 07:46:30;;;;;;;6.80;2.87;;;;;;;3.06;93.06;96188.28;5057108;28;20228;-70
2022/01/10 07:48:57;;;;;;;5.60;2.47;;;;;;;3.08;93.65;96186.41;5057145;28;20209;-70
2022/01/10 07:51:23;;;;;;;4.27;2.43;;;;;;;2.98;94.38;96195.16;5056820;28;20215;-71
2022/01/10 07:53:51;;;;;;;5.87;1.80;;;;;;;3.17;93.75;96184.75;5055689;28;20251;-71
2022/01/10 07:56:17;;;;;;;7.60;2.97;;;;;;;3.11;94.70;96193.13;5057355;28;20732;-70
2022/01/10 07:58:46;;;;;;;3.10;2.63;;;;;;;3.05;94.15;96206.66;5056406;28;20207;-70
2022/01/10 08:01:14;;;;;;;2.40;2.20;;;;;;;3.34;93.94;96207.56;5056187;28;20204;-70
2022/01/10 08:03:40;;;;;;;5.67;3.50;;;;;;;3.19;93.79;96208.88;5056320;28;20197;-70
2022/01/10 08:06:07;;;;;;;3.93;3.53;;;;;;;3.15;94.01;96215.31;5057127;28;20227;-70
2022/01/10 08:08:34;;;;;;;5.23;2.70;;;;;;;3.25;94.34;96213.56;5056139;28;20282;-70
2022/01/10 08:11:01;;;;;;;3.63;2.17;;;;;;;3.36;93.60;96222.09;5053472;28;20203;-71
2022/01/10 08:13:27;;;;;;;4.67;2.70;;;;;;;3.34;93.59;96231.00;5055967;28;20715;-71
2022/01/10 08:15:54;;;;;;;14.87;4.23;;;;;;;3.38;93.66;96234.97;5056004;28;20227;-70
2022/01/10 08:18:22;;;;;;;4.67;2.63;;;;;;;3.51;94.01;96235.56;5053154;28;20214;-70
2022/01/10 08:20:48;;;;;;;9.00;3.20;;;;;;;3.28;93.94;96234.13;5056611;28;20300;-70
2022/01/10 08:23:15;;;;;;;4.13;2.67;;;;;;;3.32;94.14;96240.72;5055428;28;20230;-71
2022/01/10 08:25:41;;;;;;;3.20;2.27;;;;;;;3.49;93.31;96250.47;5055445;28;20254;-71
2022/01/10 08:28:08;;;;;;;4.50;2.83;;;;;;;3.63;93.18;96249.13;5056771;28;20531;-70
2022/01/10 08:30:35;;;;;;;1.90;1.60;;;;;;;3.65;93.03;96260.25;5058301;28;20196;-71
2022/01/10 08:33:02;;;;;;;2.77;2.07;;;;;;;3.59;93.19;96261.75;5059567;28;20225;-70
2022/01/10 08:35:29;;;;;;;3.63;3.03;;;;;;;3.81;93.29;96265.75;5060565;28;20224;-71
2022/01/10 08:37:56;;;;;;;2.50;1.90;;;;;;;3.75;92.57;96261.06;5059730;28;20200;-71
2022/01/10 08:40:22;;;;;;;5.50;3.50;;;;;;;3.66;93.12;96269.69;5060012;28;20220;-70
2022/01/10 08:42:49;;;;;;;6.43;3.17;;;;;;;3.70;92.31;96273.72;5059441;28;20661;-70
2022/01/10 08:45:15;;;;;;;3.97;2.50;;;;;;;3.80;92.25;96281.53;5059970;28;20538;-71
2022/01/10 08:47:42;;;;;;;5.27;3.07;;;;;;;3.86;92.73;96289.63;5059869;28;20200;-71
2022/01/10 08:50:11;;;;;;;3.90;2.70;;;;;;;3.96;92.53;96287.88;5059937;28;20740;-71
2022/01/10 08:52:40;;;;;;;5.10;3.13;;;;;;;3.97;93.05;96289.53;5059051;28;20217;-71
2022/01/10 08:55:08;;;;;;;6.53;2.57;;;;;;;3.94;92.30;96294.97;5057150;28;20998;-71
2022/01/10 08:57:35;;;;;;;6.57;3.73;;;;;;;3.85;93.22;96303.63;5064545;28;20208;-70
2022/01/10 09:00:02;;;;;;;5.00;3.57;;;;;;;3.78;93.31;96310.34;5067589;28;20209;-70
2022/01/10 09:02:28;;;;;;;6.83;3.57;;;;;;;3.97;92.52;96312.97;5067500;28;20573;-70
2022/01/10 09:04:56;;;;;;;6.13;3.23;;;;;;;3.99;91.99;96307.63;5067982;28;21190;-70
2022/01/10 09:07:22;;;;;;;3.77;2.93;;;;;;;4.06;91.77;96309.56;5067783;28;20205;-70
2022/01/10 09:09:50;;;;;;;6.93;3.80;;;;;;;4.26;92.23;96309.44;5068857;28;20676;-70
2022/01/10 09:12:16;;;;;;;5.80;2.50;;;;;;;4.15;92.22;96319.19;5066407;28;20230;-70
2022/01/10 09:14:43;;;;;;;3.87;2.27;;;;;;;4.13;92.16;96322.88;5067205;28;20223;-70
2022/01/10 09:17:10;;;;;;;5.80;3.37;;;;;;;4.15;93.20;96333.97;5063592;28;20273;-70
2022/01/10 09:19:36;;;;;;;6.90;2.73;;;;;;;4.39;92.00;96332.63;5063716;28;20245;-70
2022/01/10 09:22:03;;;;;;;6.70;2.73;;;;;;;4.45;91.15;96342.50;5064442;28;20217;-70
2022/01/10 09:24:29;;;;;;;4.40;2.73;;;;;;;4.34;90.77;96342.63;5067329;28;20219;-70
2022/01/10 09:26:57;;;;;;;7.17;3.80;;;;;;;4.58;90.91;96345.66;5063314;28;20225;-70
2022/01/10 09:29:24;;;;;;;10.10;4.57;;;;;;;4.48;90.02;96344.84;5063072;28;20204;-70
2022/01/10 09:31:50;;;;;;;5.23;2.83;;;;;;;4.43;90.14;96347.88;5064290;28;20208;-70
2022/01/10 09:34:17;;;;;;;7.77;4.23;;;;;;;4.49;89.72;96352.53;5063806;28;20289;-70
2022/01/10 09:36:45;;;;;;;5.73;2.77;;;;;;;4.74;89.70;96356.38;5064148;28;20224;-70
2022/01/10 09:39:13;;;;;;;6.63;3.30;;;;;;;4.67;89.38;96358.72;5064748;28;20266;-70
2022/01/10 09:41:40;;;;;;;11.23;5.23;;;;;;;4.67;88.45;96361.31;5064713;28;20604;-70
2022/01/10 09:44:08;;;;;;;5.57;3.27;;;;;;;4.82;88.93;96360.75;5066414;28;20226;-70
2022/01/10 09:46:34;;;;;;;7.07;3.03;;;;;;;4.74;89.13;96372.03;5066501;28;20221;-70
2022/01/10 09:49:02;;;;;;;6.80;3.13;;;;;;;4.80;88.94;96372.31;5067371;28;20963;-70
2022/01/10 09:51:30;;;;;;;8.03;4.17;;;;;;;4.73;88.92;96375.59;5067756;28;20768;-70
2022/01/10 09:53:57;;;;;;;6.53;2.50;;;;;;;4.82;88.93;96376.44;5066263;28;20293;-70
2022/01/10 09:56:24;;;;;;;6.50;3.80;;;;;;;4.82;89.05;96392.09;5066439;28;20277;-70
2022/01/10 09:58:53;;;;;;;8.13;2.53;;;;;;;4.92;88.52;96386.84;5066471;28;20554;-70
2022/01/10 10:01:21;;;;;;;6.47;3.13;;;;;;;5.02;89.42;96400.72;5071875;28;20214;-70
2022/01/10 10:03:49;;;;;;;5.33;3.13;;;;;;;4.60;90.41;96390.72;5065553;28;20213;-71
2022/01/10 10:06:17;;;;;;;5.13;3.07;;;;;;;4.69;90.98;96400.34;5066139;28;20674;-70
2022/01/10 10:08:44;;;;;;;6.83;3.40;;;;;;;4.82;90.34;96399.91;5065273;28;20197;-70
2022/01/10 10:11:12;;;;;;;3.77;2.80;;;;;;;4.83;90.81;96398.94;5064339;28;20624;-70
2022/01/10 10:13:43;;;;;;;5.07;2.47;;;;;;;4.71;90.68;96401.00;5064799;28;20220;-70
2022/01/10 10:16:14;;;;;;;4.60;2.40;;;;;;;4.87;90.44;96409.94;5062490;28;20310;-70
2022/01/10 10:18:43;;;;;;;6.23;3.07;;;;;;;4.92;90.00;96402.50;5064405;28;20196;-70
2022/01/10 10:21:14;;;;;;;3.83;2.47;;;;;;;4.95;90.51;96404.84;5064345;28;20645;-71
2022/01/10 10:23:46;;;;;;;2.60;2.27;;;;;;;4.75;90.25;96410.19;5065339;28;20254;-70
2022/01/10 10:26:16;;;;;;;5.90;2.70;;;;;;;4.95;90.40;96408.28;5065970;28;20315;-70
2022/01/10 10:28:45;;;;;;;8.50;2.77;;;;;;;4.94;91.17;96408.44;5066243;28;20284;-70
2022/01/10 10:31:12;;;;;;;14.57;3.43;;;;;;;4.91;89.96;96412.16;5066639;28;20205;-70
2022/01/10 10:33:49;;;;;;;6.30;2.57;;;;;;;5.36;89.05;96415.78;5068449;28;20242;-70
2022/01/10 10:36:17;;;;;;;3.90;2.77;;;;;;;5.14;89.52;96418.72;5067722;28;20228;-70
2022/01/10 10:38:44;;;;;;;3.27;2.60;;;;;;;5.13;89.07;96419.69;5067527;28;20696;-70
2022/01/10 10:41:10;;;;;;;9.33;3.20;;;;;;;5.18;88.94;96422.69;5067753;28;20234;-70
2022/01/10 10:43:39;;;;;;;4.93;3.20;;;;;;;5.25;88.75;96423.75;5067324;28;20208;-70
2022/01/10 10:46:11;;;;;;;7.20;3.57;;;;;;;5.31;88.81;96433.66;5067074;28;20290;-70
2022/01/10 10:48:39;;;;;;;9.00;4.10;;;;;;;5.18;89.95;96437.53;5066604;28;20676;-71
2022/01/10 10:51:08;;;;;;;9.23;2.50;;;;;;;5.07;90.97;96425.44;5067000;28;20200;-70
2022/01/10 10:53:35;;;;;;;6.07;3.37;;;;;;;5.12;91.47;96441.53;5066873;28;20231;-71
2022/01/10 10:56:03;;;;;;;4.23;2.17;;;;;;;5.06;91.67;96439.47;5067373;28;20231;-70
2022/01/10 10:58:30;;;;;;;7.17;3.70;;;;;;;5.26;89.50;96438.47;5068954;28;20235;-71
2022/01/10 11:00:57;;;;;;;5.73;3.00;;;;;;;4.91;89.47;96440.88;5067227;28;20673;-70
2022/01/10 11:03:24;;;;;;;6.83;3.93;;;;;;;5.03;89.19;96444.97;5066814;28;20882;-70
2022/01/10 11:05:54;;;;;;;6.80;3.17;;;;;;;5.04;89.91;96445.78;5067353;28;20270;-72
2022/01/10 11:08:23;;;;;;;4.20;2.60;;;;;;;4.99;90.54;96456.66;5068078;28;20723;-70
2022/01/10 11:10:50;;;;;;;15.67;2.70;;;;;;;4.94;91.47;96445.00;5066238;28;20591;-70
2022/01/10 11:13:20;;;;;;;4.37;2.70;;;;;;;4.66;92.03;96458.84;5067266;28;20231;-70
2022/01/10 11:15:46;;;;;;;5.37;2.60;;;;;;;4.61;92.28;96455.81;5067509;28;20227;-70
2022/01/10 11:18:13;;;;;;;4.40;2.30;;;;;;;4.51;93.17;96454.16;5068907;28;20208;-71
2022/01/10 11:20:43;;;;;;;4.00;2.17;;;;;;;4.79;92.94;96461.19;5068195;28;20208;-70
2022/01/10 11:23:11;;;;;;;3.83;2.30;;;;;;;4.83;91.99;96472.03;5066390;28;20204;-70
2022/01/10 11:25:40;;;;;;;5.37;2.53;;;;;;;5.04;92.02;96470.13;5063756;28;20688;-71
2022/01/10 11:28:09;;;;;;;4.37;2.40;;;;;;;4.91;92.32;96474.81;5057416;28;20319;-71
2022/01/10 11:30:38;;;;;;;6.33;2.93;;;;;;;5.27;91.96;96475.88;5056477;28;20609;-72
2022/01/10 11:33:08;;;;;;;4.93;2.73;;;;;;;5.15;91.61;96469.16;5056530;28;20235;-71
2022/01/10 11:35:37;;;;;;;4.40;3.17;;;;;;;4.95;91.27;96480.56;5057555;28;20235;-71
2022/01/10 11:38:18;;;;;;;3.60;2.20;;;;;;;4.64;92.29;96481.63;5057695;28;20204;-71
2022/01/10 11:40:47;;;;;;;7.93;3.00;;;;;;;4.81;93.47;96491.41;5056229;28;20329;-71
2022/01/10 11:43:31;;;;;;;6.57;1.83;;;;;;;4.80;93.21;96495.00;5055986;28;20798;-72
2022/01/10 11:46:10;;;;;;;15.63;2.83;;;;;;;4.88;91.10;96495.94;5056766;28;20228;-71